Time;durP1;ratioP1;P1;durP2;ratioP2;P2;SDS_P1;SDS_P2;PMS_P1;PMS_P2;Temp;Humidity;BMP_temperature;BMP_pressure;BME280_temperature;BME280_humidity;BME280_pressure;Samples;Min_cycle;Max_cycle;Signal;HPM_P1;HPM_P2
2022/06/07 00:00:13;;;;;;;11.50;9.05;;;;;;;17.39;73.07;100125.97;2197609;81;32586;-71
2022/06/07 00:03:16;;;;;;;13.30;8.13;;;;;;;17.35;73.12;100119.95;2196967;81;29817;-71
2022/06/07 00:06:18;;;;;;;12.15;9.13;;;;;;;17.34;73.04;100126.83;2197690;81;29176;-71
2022/06/07 00:09:19;;;;;;;10.55;9.40;;;;;;;17.29;73.04;100122.64;2198026;81;27717;-70
2022/06/07 00:12:21;;;;;;;12.07;8.60;;;;;;;17.25;73.13;100118.48;2197439;81;28632;-71
2022/06/07 00:15:23;;;;;;;11.45;8.23;;;;;;;17.23;73.14;100116.39;2197332;81;30824;-72
2022/06/07 00:18:24;;;;;;;13.35;11.95;;;;;;;17.21;73.17;100118.35;2197393;81;34085;-72
2022/06/07 00:21:29;;;;;;;11.95;10.65;;;;;;;17.20;73.44;100117.14;2197638;81;29341;-72
2022/06/07 00:24:29;;;;;;;19.52;14.13;;;;;;;17.20;73.46;100114.42;2197102;81;27696;-71
2022/06/07 00:27:30;;;;;;;14.38;12.82;;;;;;;17.01;73.31;100094.25;2197482;81;29174;-71
2022/06/07 00:30:32;;;;;;;13.00;11.57;;;;;;;17.01;73.31;100094.25;2197342;80;31080;-71
2022/06/07 00:33:34;;;;;;;12.98;11.68;;;;;;;17.11;73.49;100115.52;2197342;81;33024;-71
2022/06/07 00:36:36;;;;;;;11.65;10.48;;;;;;;17.09;73.50;100114.78;2197078;81;30504;-72
2022/06/07 00:39:38;;;;;;;13.75;11.22;;;;;;;17.07;73.46;100113.19;2197308;81;27955;-72
2022/06/07 00:42:39;;;;;;;13.00;10.05;;;;;;;17.03;73.36;100118.00;2197423;80;29079;-70
2022/06/07 00:45:41;;;;;;;11.53;10.32;;;;;;;16.98;73.29;100116.98;2197139;81;31153;-71
2022/06/07 00:48:42;;;;;;;13.20;11.80;;;;;;;16.93;73.35;100111.07;2197184;81;34176;-71
2022/06/07 00:51:45;;;;;;;14.53;12.68;;;;;;;16.89;73.53;100111.41;2197337;81;29680;-71
2022/06/07 00:54:47;;;;;;;14.07;12.28;;;;;;;16.85;73.73;100095.92;2197432;81;27752;-71
2022/06/07 00:57:49;;;;;;;17.85;15.75;;;;;;;16.82;73.89;100095.69;2197224;81;29855;-71
2022/06/07 01:00:52;;;;;;;19.42;16.57;;;;;;;16.80;74.05;100099.00;2197376;80;31824;-73
2022/06/07 01:03:53;;;;;;;18.48;16.40;;;;;;;16.79;74.15;100093.72;2197365;81;32986;-72
2022/06/07 01:13:37;;;;;;;20.20;17.67;;;;;;;16.77;74.33;100086.22;2197688;81;29097;-71
2022/06/07 01:16:40;;;;;;;18.35;16.20;;;;;;;16.76;74.35;100081.78;2197382;81;31912;-72
2022/06/07 01:19:42;;;;;;;22.17;17.30;;;;;;;16.77;74.44;100083.51;2197571;81;33775;-71
2022/06/07 01:22:45;;;;;;;19.73;17.70;;;;;;;16.76;74.62;100085.34;2197407;81;30455;-70
2022/06/07 01:25:46;;;;;;;21.73;16.85;;;;;;;16.77;74.61;100090.27;2197400;81;27688;-72
2022/06/07 01:28:48;;;;;;;23.27;17.12;;;;;;;16.77;74.60;100087.06;2197188;81;29099;-72
2022/06/07 01:31:49;;;;;;;19.02;16.48;;;;;;;16.77;74.58;100085.70;2199745;80;31807;-72
2022/06/07 01:34:53;;;;;;;20.00;17.07;;;;;;;16.76;74.48;100075.87;2201103;80;33046;-72
2022/06/07 01:37:54;;;;;;;23.22;17.65;;;;;;;16.75;74.52;100075.50;2157143;82;29409;-73
2022/06/07 01:44:15;;;;;;;18.02;16.15;;;;;;;16.70;74.33;100072.31;2170818;81;28697;-72
2022/06/07 01:47:30;;;;;;;22.32;18.95;;;;;;;16.65;74.23;100075.87;2192864;81;32199;-69
2022/06/07 01:50:31;;;;;;;21.75;17.45;;;;;;;16.60;74.23;100076.71;2193184;81;33117;-67
2022/06/07 01:53:34;;;;;;;21.85;18.25;;;;;;;16.52;74.15;100076.84;2193396;81;30260;-72
2022/06/07 01:56:36;;;;;;;21.12;18.35;;;;;;;16.47;74.14;100082.21;2196822;81;27709;-71
2022/06/07 01:59:41;;;;;;;19.05;16.77;;;;;;;16.27;74.14;100056.27;2197204;81;29862;-68
2022/06/07 02:02:42;;;;;;;18.32;15.80;;;;;;;16.33;74.14;100088.20;2192922;81;31902;-68
2022/06/07 02:05:59;;;;;;;19.10;16.77;;;;;;;16.26;73.98;100080.22;2192840;81;32725;-72
2022/06/07 02:09:01;;;;;;;19.30;16.57;;;;;;;16.19;74.12;100073.55;2193117;81;30115;-72
2022/06/07 02:12:04;;;;;;;20.15;16.93;;;;;;;16.12;74.14;100073.16;2192821;81;27659;-71
2022/06/07 02:15:07;;;;;;;22.02;18.52;;;;;;;16.07;74.41;100075.34;2192909;81;29512;-73
2022/06/07 02:18:08;;;;;;;20.43;16.82;;;;;;;16.03;74.52;100071.17;2197145;81;31019;-73
2022/06/07 02:21:10;;;;;;;21.48;18.20;;;;;;;15.98;74.50;100073.36;2192702;81;34447;-73
2022/06/07 02:24:12;;;;;;;21.93;17.70;;;;;;;15.92;74.45;100066.59;2240933;79;29674;-72
2022/06/07 02:27:17;;;;;;;19.90;15.90;;;;;;;15.86;74.45;100053.53;2240751;79;27692;-71
2022/06/07 02:30:19;;;;;;;20.65;17.10;;;;;;;15.80;74.52;100055.68;2240924;79;28637;-72
2022/06/07 02:33:21;;;;;;;22.32;18.82;;;;;;;15.76;74.52;100066.37;2236952;79;31011;-71
2022/06/07 02:36:22;;;;;;;23.32;18.77;;;;;;;15.71;74.52;100067.70;2237079;79;32989;-71
2022/06/07 02:39:24;;;;;;;19.90;17.77;;;;;;;15.65;74.57;100059.53;2237362;79;29353;-73
2022/06/07 02:42:28;;;;;;;27.65;19.52;;;;;;;15.59;74.64;100062.72;2237093;79;27687;-73
2022/06/07 02:45:29;;;;;;;25.45;19.95;;;;;;;15.55;74.77;100059.39;2237196;79;28660;-71
2022/06/07 02:53:06;;;;;;;20.23;17.40;;;;;;;15.37;75.42;100039.16;2236954;79;28829;-71
2022/06/07 02:56:07;;;;;;;24.70;19.07;;;;;;;15.37;75.42;100039.16;2237166;79;29357;-70
2022/06/07 02:59:09;;;;;;;34.10;19.35;;;;;;;15.47;75.27;100061.28;2237248;79;27648;-70
2022/06/07 03:02:11;;;;;;;25.90;21.25;;;;;;;15.48;75.46;100057.61;2236841;79;29322;-68
2022/06/07 03:05:13;;;;;;;28.23;21.65;;;;;;;15.50;75.66;100046.21;2236720;79;32249;-69
2022/06/07 03:08:18;;;;;;;32.63;24.25;;;;;;;15.53;76.04;100053.24;2237101;79;33338;-67
2022/06/07 03:11:20;;;;;;;40.70;23.18;;;;;;;15.55;76.12;100051.30;2237180;78;29304;-70
2022/06/07 03:14:22;;;;;;;33.75;23.77;;;;;;;15.58;76.22;100055.59;2237237;79;27655;-70
2022/06/07 03:17:24;;;;;;;35.45;22.62;;;;;;;15.59;76.26;100051.92;2236869;79;29908;-69
2022/06/07 03:20:26;;;;;;;94.45;23.10;;;;;;;15.61;76.24;100051.31;2236785;79;32080;-71
2022/06/07 03:23:27;;;;;;;69.95;21.82;;;;;;;15.62;76.33;100048.99;2236887;79;34119;-69
2022/06/07 03:26:29;;;;;;;39.90;22.17;;;;;;;15.64;76.52;100049.71;2237423;79;29389;-71
2022/06/07 03:29:31;;;;;;;60.28;20.37;;;;;;;15.67;76.62;100048.64;2236937;79;27668;-69
2022/06/07 03:32:35;;;;;;;81.40;19.10;;;;;;;15.57;76.48;100038.52;2237069;78;29031;-69
2022/06/07 03:35:39;;;;;;;75.32;19.35;;;;;;;15.57;76.48;100038.52;2236714;79;31119;-70
2022/06/07 03:38:42;;;;;;;52.73;21.77;;;;;;;15.76;76.85;100048.81;2237256;79;33728;-71
2022/06/07 03:41:44;;;;;;;32.25;19.90;;;;;;;15.91;76.96;100047.30;2236795;79;30294;-72
2022/06/07 03:44:48;;;;;;;24.40;20.27;;;;;;;16.08;76.98;100059.50;2237157;79;27648;-70
2022/06/07 03:47:50;;;;;;;21.97;19.57;;;;;;;16.23;76.87;100042.61;2236963;79;29372;-71
2022/06/07 03:50:53;;;;;;;22.65;19.37;;;;;;;16.34;76.62;100047.19;2237188;79;31057;-70
2022/06/07 03:53:56;;;;;;;21.65;19.07;;;;;;;16.42;76.59;100053.34;2237074;79;33020;-70
2022/06/07 03:56:59;;;;;;;21.60;18.98;;;;;;;16.55;76.53;100051.39;2236846;79;29449;-69
2022/06/07 04:00:01;;;;;;;20.95;17.87;;;;;;;16.69;76.44;100056.56;2237241;79;27540;-69
2022/06/07 04:03:03;;;;;;;19.75;17.65;;;;;;;16.84;76.33;100057.67;2236936;79;30060;-71
2022/06/07 04:06:05;;;;;;;21.37;18.75;;;;;;;16.98;76.24;100053.90;2236826;79;31061;-69
2022/06/07 04:09:07;;;;;;;18.05;16.23;;;;;;;17.12;76.15;100050.08;2237217;79;33864;-69
2022/06/07 04:12:14;;;;;;;21.07;17.25;;;;;;;17.20;76.01;100050.30;2237036;79;29263;-69
2022/06/07 04:15:16;;;;;;;18.80;16.90;;;;;;;17.29;75.89;100051.40;2237140;79;27733;-67
2022/06/07 04:18:20;;;;;;;18.48;16.57;;;;;;;17.36;75.87;100051.27;2236911;79;29900;-70
2022/06/07 04:21:23;;;;;;;18.47;16.47;;;;;;;17.45;75.81;100058.63;2237271;79;31742;-70
2022/06/07 04:24:25;;;;;;;18.02;16.10;;;;;;;17.55;75.74;100053.78;2236969;79;33000;-69
2022/06/07 04:27:27;;;;;;;16.95;15.25;;;;;;;17.63;75.68;100056.73;2237264;79;29440;-69
2022/06/07 04:30:30;;;;;;;17.27;15.58;;;;;;;17.71;75.58;100051.52;2237106;79;27682;-70
2022/06/07 04:33:32;;;;;;;17.87;15.98;;;;;;;17.82;75.60;100050.62;2228129;79;28633;-68
2022/06/07 04:36:35;;;;;;;20.05;16.25;;;;;;;17.95;75.52;100049.60;2226686;79;31822;-67
2022/06/07 04:39:37;;;;;;;16.95;14.93;;;;;;;18.09;75.43;100047.08;2200655;79;32952;-69
2022/06/07 04:42:41;;;;;;;17.48;15.35;;;;;;;18.32;75.84;100044.63;2227477;79;29383;-69
2022/06/07 04:45:43;;;;;;;16.62;12.80;;;;;;;19.38;77.04;100044.87;2227429;79;27639;-68
2022/06/07 04:48:46;;;;;;;15.35;12.15;;;;;;;21.00;76.63;100040.22;2226973;79;29988;-68
2022/06/07 04:51:48;;;;;;;11.85;10.75;;;;;;;22.73;74.87;100042.38;2227572;79;31835;-67
2022/06/07 04:54:50;;;;;;;12.30;11.05;;;;;;;24.36;72.70;100040.76;2226901;79;34152;-70
2022/06/07 04:57:53;;;;;;;10.55;9.40;;;;;;;25.89;70.70;100041.54;2227087;79;30488;-69
2022/06/07 05:00:55;;;;;;;10.00;9.00;;;;;;;27.26;68.34;100043.79;2188105;81;27620;-65
2022/06/07 05:03:58;;;;;;;9.03;7.90;;;;;;;28.47;65.80;100051.09;2188006;81;29902;-66
2022/06/07 05:07:00;;;;;;;8.93;7.75;;;;;;;29.59;63.86;100044.75;2187905;81;32204;-66
2022/06/07 05:10:02;;;;;;;8.10;7.40;;;;;;;30.57;61.62;100039.25;2188236;81;33888;-68
2022/06/07 05:13:04;;;;;;;8.15;7.35;;;;;;;31.40;59.18;100046.59;2188264;81;30483;-67
2022/06/07 05:16:08;;;;;;;7.92;7.12;;;;;;;32.25;56.57;100044.89;2188213;81;27677;-69
2022/06/07 05:19:12;;;;;;;7.37;6.67;;;;;;;32.97;55.15;100033.03;2188398;81;29548;-68
2022/06/07 05:22:14;;;;;;;8.43;6.60;;;;;;;33.27;52.50;100034.48;2188340;81;32016;-67
2022/06/07 05:25:16;;;;;;;7.03;6.30;;;;;;;33.21;51.65;100033.19;2188146;81;32984;-63
2022/06/07 05:28:18;;;;;;;8.53;6.00;;;;;;;33.78;51.04;100028.13;2188350;81;30003;-63
2022/06/07 05:31:20;;;;;;;7.75;5.87;;;;;;;34.43;49.47;100037.30;2188444;81;27674;-64
2022/06/07 05:34:22;;;;;;;5.97;5.15;;;;;;;35.07;47.86;100034.62;2195228;81;30021;-63
2022/06/07 05:37:24;;;;;;;6.15;5.53;;;;;;;35.62;46.37;100035.19;2197364;81;32026;-64
2022/06/07 05:40:26;;;;;;;5.90;4.40;;;;;;;36.01;45.13;100033.13;2197219;81;33664;-63
2022/06/07 05:43:29;;;;;;;8.25;5.05;;;;;;;36.37;44.03;100032.33;2197313;81;29751;-64
2022/06/07 05:46:31;;;;;;;4.72;4.37;;;;;;;36.67;42.84;100021.36;2197079;81;27727;-63
2022/06/07 05:49:34;;;;;;;6.75;4.87;;;;;;;36.85;41.43;100027.75;2197099;81;30113;-63
2022/06/07 05:52:40;;;;;;;5.20;4.47;;;;;;;36.97;40.67;100030.45;2197622;81;31187;-65
2022/06/07 05:55:43;;;;;;;4.83;4.42;;;;;;;37.14;39.83;100024.26;2197416;81;33592;-64
2022/06/07 05:58:45;;;;;;;4.20;3.90;;;;;;;37.31;38.76;100024.73;2197299;81;29767;-65
2022/06/07 06:01:47;;;;;;;5.42;4.17;;;;;;;37.50;37.98;100014.89;2197537;80;27716;-65
2022/06/07 06:04:49;;;;;;;5.90;4.62;;;;;;;37.73;37.19;100025.48;2197207;81;29883;-63
2022/06/07 06:11:19;;;;;;;7.70;4.25;;;;;;;38.33;35.64;100025.45;2197169;81;34381;-66
2022/06/07 06:14:22;;;;;;;4.65;3.65;;;;;;;38.71;34.72;100026.30;2197470;81;30280;-68
2022/06/07 06:17:24;;;;;;;4.05;3.60;;;;;;;38.82;33.99;100030.55;2197766;81;27617;-68
2022/06/07 06:20:27;;;;;;;4.53;3.40;;;;;;;39.16;33.38;100025.43;2197270;81;29858;-64
2022/06/07 06:23:29;;;;;;;3.17;2.87;;;;;;;39.58;32.48;100031.17;2197192;81;31721;-64
2022/06/07 06:26:32;;;;;;;2.72;2.55;;;;;;;39.73;31.75;100033.17;2197266;81;33004;-68
2022/06/07 06:29:34;;;;;;;3.27;3.08;;;;;;;39.67;31.58;100028.13;2197537;81;30499;-66
2022/06/07 06:32:36;;;;;;;3.10;2.90;;;;;;;39.44;30.87;100032.28;2197623;80;27593;-65
2022/06/07 06:35:38;;;;;;;7.08;3.05;;;;;;;39.05;30.93;100032.95;2197756;81;29086;-66
2022/06/07 06:38:40;;;;;;;3.53;2.90;;;;;;;38.32;30.51;100026.56;2197450;81;32262;-66
2022/06/07 06:41:45;;;;;;;5.30;3.27;;;;;;;37.57;30.46;100027.27;2197806;80;33777;-69
2022/06/07 06:44:47;;;;;;;2.72;2.52;;;;;;;36.87;30.52;100029.17;2197527;81;30146;-65
2022/06/07 06:47:49;;;;;;;2.77;2.40;;;;;;;36.08;30.53;100041.33;2197451;81;27690;-66
2022/06/07 06:51:01;;;;;;;3.00;2.70;;;;;;;35.25;30.71;100045.28;2197385;80;29898;-67
2022/06/07 06:54:05;;;;;;;4.72;2.87;;;;;;;34.45;31.08;100037.91;2197243;81;32243;-64
2022/06/07 06:57:07;;;;;;;2.87;2.67;;;;;;;33.65;31.56;100047.78;2197747;81;33806;-67
2022/06/07 07:00:11;;;;;;;2.87;2.50;;;;;;;33.00;32.22;100036.21;2197503;81;30168;-69
2022/06/07 07:03:14;;;;;;;3.12;2.83;;;;;;;32.42;32.86;100042.42;2197581;81;27708;-68
2022/06/07 07:06:16;;;;;;;4.53;3.62;;;;;;;31.88;33.41;100043.87;2197655;80;29379;-66
2022/06/07 07:09:24;;;;;;;4.83;3.12;;;;;;;31.38;33.90;100050.94;2197841;81;31019;-69
2022/06/07 07:12:24;;;;;;;3.20;3.00;;;;;;;30.84;34.55;100046.11;2197331;80;33114;-69
2022/06/07 07:15:27;;;;;;;3.70;3.05;;;;;;;30.38;35.13;100040.92;2197344;80;30505;-66
2022/06/07 07:18:29;;;;;;;5.15;3.17;;;;;;;29.92;35.50;100046.19;2197357;81;27724;-66
2022/06/07 07:21:38;;;;;;;3.98;2.67;;;;;;;29.63;36.29;100048.78;2197262;81;29532;-65
2022/06/07 07:24:41;;;;;;;3.58;3.20;;;;;;;29.45;36.84;100049.38;2197100;81;31156;-65
2022/06/07 07:27:44;;;;;;;4.28;3.10;;;;;;;29.25;37.04;100052.35;2197702;80;34163;-66
2022/06/07 07:30:47;;;;;;;4.37;3.10;;;;;;;29.11;37.55;100058.33;2197922;81;30160;-65
2022/06/07 07:33:49;;;;;;;4.58;3.05;;;;;;;28.98;37.77;100057.39;2200075;80;27846;-64
2022/06/07 07:36:53;;;;;;;3.42;3.10;;;;;;;28.86;38.03;100057.13;2201030;80;29946;-65
2022/06/07 07:39:55;;;;;;;8.70;3.67;;;;;;;28.78;38.12;100058.98;2241163;79;31011;-65
2022/06/07 07:42:58;;;;;;;4.33;3.20;;;;;;;28.79;38.66;100056.55;2240852;79;34172;-68
2022/06/07 07:45:59;;;;;;;4.33;3.58;;;;;;;28.87;38.76;100058.30;2199269;81;29679;-65
2022/06/07 07:49:03;;;;;;;5.47;3.27;;;;;;;29.02;38.90;100051.29;2241101;79;27669;-65
2022/06/07 07:52:06;;;;;;;3.23;2.90;;;;;;;29.06;38.88;100056.70;2199526;81;28739;-66
2022/06/07 07:55:09;;;;;;;3.67;2.80;;;;;;;29.17;38.89;100053.89;2241252;79;31689;-66
2022/06/07 07:58:11;;;;;;;3.80;2.80;;;;;;;29.14;38.64;100054.84;2241016;79;33978;-67
2022/06/07 08:01:16;;;;;;;3.12;2.60;;;;;;;28.93;38.43;100053.36;2241106;79;30135;-65
2022/06/07 08:04:19;;;;;;;4.08;2.33;;;;;;;28.69;38.31;100057.42;2241212;79;27685;-65
2022/06/07 08:07:21;;;;;;;4.80;2.33;;;;;;;28.62;38.33;100051.86;2241173;79;29270;-66
2022/06/07 08:10:24;;;;;;;3.02;2.70;;;;;;;28.53;38.21;100054.97;2241047;79;30522;-66
2022/06/07 08:13:26;;;;;;;4.03;2.47;;;;;;;28.40;38.28;100055.72;2240714;79;34441;-66
2022/06/07 08:16:28;;;;;;;3.75;2.15;;;;;;;28.32;38.49;100052.04;2241073;79;29336;-67
2022/06/07 08:19:31;;;;;;;6.47;2.42;;;;;;;28.36;38.20;100049.77;2241280;79;27610;-71
2022/06/07 08:22:33;;;;;;;2.95;2.10;;;;;;;28.35;38.05;100048.89;2240631;79;29861;-67
2022/06/07 08:25:36;;;;;;;2.22;2.02;;;;;;;28.28;37.98;100056.27;2200902;80;31932;-69
2022/06/07 08:28:40;;;;;;;3.45;2.20;;;;;;;28.15;37.51;100051.99;2201303;80;32856;-69
2022/06/07 08:31:42;;;;;;;4.17;2.42;;;;;;;28.13;37.66;100048.61;2241272;79;30025;-70
2022/06/07 08:38:05;;;;;;;2.67;2.20;;;;;;;28.64;38.10;100046.98;2236932;79;30070;-66
2022/06/07 08:41:10;;;;;;;7.97;2.33;;;;;;;29.01;37.65;100038.55;2236920;79;32218;-71
2022/06/07 08:44:29;;;;;;;4.12;2.22;;;;;;;29.25;36.91;100037.18;2195204;81;34186;-67
2022/06/07 08:47:46;;;;;;;2.15;1.95;;;;;;;29.78;37.34;100037.05;2197193;80;30506;-69
2022/06/07 08:51:22;;;;;;;3.30;1.90;;;;;;;30.29;36.77;100034.24;2197732;81;27726;-66
2022/06/07 08:54:32;;;;;;;6.25;2.42;;;;;;;30.72;35.64;100041.25;2197198;81;29493;-65
2022/06/07 08:57:41;;;;;;;2.30;2.10;;;;;;;31.09;35.66;100037.11;2197460;81;31828;-67
2022/06/07 09:00:42;;;;;;;2.77;2.58;;;;;;;31.44;35.21;100039.55;2196264;81;33589;-65
2022/06/07 09:04:21;;;;;;;2.50;2.30;;;;;;;31.74;35.15;100035.66;2197196;81;29543;-69
2022/06/07 09:07:23;;;;;;;5.90;2.98;;;;;;;31.87;34.92;100030.58;2197445;81;27807;-66
2022/06/07 09:13:51;;;;;;;3.02;2.70;;;;;;;31.75;34.86;100020.74;2197117;81;32109;-64
2022/06/07 09:16:54;;;;;;;4.62;2.70;;;;;;;31.86;34.51;100020.56;2197562;81;33373;-65
2022/06/07 09:19:56;;;;;;;2.45;2.25;;;;;;;32.18;34.40;100014.15;2197508;80;29330;-66
2022/06/07 09:23:13;;;;;;;3.85;2.70;;;;;;;32.44;34.05;100014.45;2197677;81;27691;-66
2022/06/07 09:26:31;;;;;;;3.52;3.22;;;;;;;32.68;33.68;100009.10;2197108;81;28749;-64
2022/06/07 09:29:38;;;;;;;3.33;2.67;;;;;;;32.90;33.31;100006.75;2197258;81;31798;-66
2022/06/07 09:32:39;;;;;;;5.67;3.37;;;;;;;32.78;33.24;100009.41;2197213;80;33767;-67
2022/06/07 09:35:43;;;;;;;5.55;2.77;;;;;;;32.66;33.47;99997.38;2197175;81;29395;-66
2022/06/07 09:38:53;;;;;;;3.55;3.25;;;;;;;32.57;33.40;100001.00;2197656;80;27711;-66
2022/06/07 09:42:09;;;;;;;4.35;3.45;;;;;;;32.43;33.29;99995.59;2197485;81;28648;-66
2022/06/07 09:45:28;;;;;;;3.98;3.30;;;;;;;32.22;33.26;99993.20;2143081;82;32239;-65
2022/06/07 09:48:41;;;;;;;7.87;3.65;;;;;;;32.02;33.16;99990.61;2197231;81;35109;-65
2022/06/07 09:51:44;;;;;;;3.47;2.92;;;;;;;31.88;33.42;99987.95;2197722;81;29350;-65
2022/06/07 09:54:48;;;;;;;4.63;2.80;;;;;;;31.88;33.46;99974.09;2197595;81;27689;-67
2022/06/07 09:58:32;;;;;;;7.65;2.60;;;;;;;31.82;33.29;99970.83;2197600;81;28859;-65
2022/06/07 10:01:58;;;;;;;3.03;2.70;;;;;;;31.81;33.25;99963.07;2197471;81;32268;-65
2022/06/07 10:05:17;;;;;;;2.67;2.47;;;;;;;31.95;33.53;99956.03;2197217;81;32934;-65
2022/06/07 10:08:36;;;;;;;7.08;2.55;;;;;;;32.23;33.48;99965.27;2197206;81;30193;-67
2022/06/07 10:12:08;;;;;;;3.08;2.77;;;;;;;32.43;33.40;99957.33;2211767;79;27589;-67
2022/06/07 10:15:37;;;;;;;6.10;2.80;;;;;;;32.48;32.98;99954.69;2240840;79;29399;-65
2022/06/07 10:19:03;;;;;;;5.40;2.55;;;;;;;32.47;32.85;99965.47;2240715;79;31899;-69
2022/06/07 10:22:40;;;;;;;4.03;2.87;;;;;;;32.32;32.76;99953.91;2241279;79;34032;-66
2022/06/07 10:25:50;;;;;;;5.22;2.37;;;;;;;32.37;32.92;99957.67;2196888;81;30484;-66
2022/06/07 10:29:16;;;;;;;5.00;3.25;;;;;;;32.58;32.78;99952.25;2197305;81;27687;-67
2022/06/07 10:32:27;;;;;;;5.50;2.87;;;;;;;32.57;32.87;99952.47;2197217;81;29477;-67
2022/06/07 10:35:57;;;;;;;2.52;1.90;;;;;;;32.44;32.49;99953.45;2190461;81;31169;-69
2022/06/07 10:39:34;;;;;;;3.65;2.02;;;;;;;32.30;32.02;99950.51;2237444;79;33820;-66
2022/06/07 10:42:59;;;;;;;1.70;1.60;;;;;;;32.22;31.70;99953.88;2236630;79;30589;-66
2022/06/07 10:46:01;;;;;;;2.10;1.90;;;;;;;32.23;31.76;99958.34;2197722;81;27680;-67
2022/06/07 10:49:27;;;;;;;2.55;2.35;;;;;;;32.23;31.47;99959.72;2197302;81;28614;-68
2022/06/07 10:52:44;;;;;;;2.10;1.90;;;;;;;32.13;31.44;99958.85;2188898;81;31635;-67
2022/06/07 10:56:06;;;;;;;2.42;2.22;;;;;;;32.07;31.46;99960.30;2197427;80;33773;-70
2022/06/07 10:59:21;;;;;;;3.67;2.17;;;;;;;32.11;31.71;99955.45;2197672;81;30114;-69
2022/06/07 11:03:02;;;;;;;5.67;2.30;;;;;;;32.17;31.86;99954.25;2197394;81;27909;-66
2022/06/07 11:09:47;;;;;;;4.37;2.70;;;;;;;32.02;31.61;99939.34;2197345;80;32014;-70
2022/06/07 11:13:27;;;;;;;3.00;2.05;;;;;;;31.89;31.91;99940.30;2197290;81;33033;-68
2022/06/07 11:16:46;;;;;;;2.08;1.90;;;;;;;31.68;31.40;99936.28;2197570;81;29232;-72
2022/06/07 11:19:51;;;;;;;7.70;1.75;;;;;;;31.34;31.13;99941.75;2197662;81;27616;-67
2022/06/07 11:23:10;;;;;;;2.35;2.15;;;;;;;31.00;31.58;99936.91;2197481;81;28819;-70
2022/06/07 11:26:17;;;;;;;4.17;2.05;;;;;;;30.88;32.13;99936.19;2197523;81;31109;-71
2022/06/07 11:29:27;;;;;;;3.47;2.62;;;;;;;30.64;32.21;99937.77;2197430;81;33362;-72
2022/06/07 11:32:53;;;;;;;4.08;2.62;;;;;;;30.36;32.09;99941.65;2197700;81;29524;-68
2022/06/07 11:36:24;;;;;;;3.45;2.30;;;;;;;30.13;32.66;99940.19;2189065;80;27747;-68
2022/06/07 11:39:43;;;;;;;2.65;2.45;;;;;;;29.92;32.76;99939.02;2188462;81;28499;-73
2022/06/07 11:42:45;;;;;;;3.05;2.72;;;;;;;29.74;32.67;99934.11;2188114;81;31504;-70
2022/06/07 11:45:53;;;;;;;2.77;2.27;;;;;;;29.64;33.33;99929.01;2188052;81;33567;-69
2022/06/07 11:48:55;;;;;;;3.70;2.15;;;;;;;29.61;33.45;99939.12;2188163;81;30000;-65
2022/06/07 11:52:12;;;;;;;3.92;2.10;;;;;;;29.59;33.53;99930.19;2188447;81;27613;-65
2022/06/07 11:55:17;;;;;;;2.20;2.00;;;;;;;29.70;33.76;99933.70;2178001;81;28692;-71
2022/06/07 11:58:41;;;;;;;2.40;2.00;;;;;;;29.90;33.80;99928.17;2188268;81;31214;-72
2022/06/07 12:01:50;;;;;;;2.72;1.75;;;;;;;30.08;33.55;99924.80;2188104;81;34187;-67
2022/06/07 12:05:00;;;;;;;2.92;1.80;;;;;;;30.27;33.27;99932.73;2184129;81;30519;-66
2022/06/07 12:08:31;;;;;;;1.92;1.70;;;;;;;30.39;32.77;99939.84;2188311;81;27721;-72
2022/06/07 12:11:40;;;;;;;2.17;1.92;;;;;;;30.40;32.71;99939.30;2188172;81;29098;-70
2022/06/07 12:14:43;;;;;;;2.50;1.90;;;;;;;30.51;32.29;99941.41;2188397;81;31018;-66
2022/06/07 12:18:01;;;;;;;1.80;1.70;;;;;;;30.43;32.31;99940.25;2187948;81;34204;-66
2022/06/07 12:21:11;;;;;;;3.70;2.30;;;;;;;30.41;32.40;99939.09;2187875;81;30344;-66
2022/06/07 12:24:17;;;;;;;2.27;1.87;;;;;;;30.28;32.17;99944.66;2187034;81;27754;-69
2022/06/07 12:27:45;;;;;;;3.90;2.00;;;;;;;30.02;32.42;99951.89;2188037;81;30857;-66
2022/06/07 12:30:48;;;;;;;2.33;1.85;;;;;;;29.75;32.56;99961.53;2186519;81;31076;-69
2022/06/07 12:33:53;;;;;;;2.83;1.82;;;;;;;29.40;32.70;99966.66;2188946;81;33764;-67
2022/06/07 12:37:12;;;;;;;5.65;2.45;;;;;;;29.03;32.82;99970.77;2197117;81;30049;-67
2022/06/07 12:40:32;;;;;;;2.75;2.12;;;;;;;28.69;33.32;99978.86;2196047;81;28129;-69
2022/06/07 12:43:39;;;;;;;7.37;3.22;;;;;;;28.36;34.49;99985.02;2152438;82;28667;-67
2022/06/07 12:46:46;;;;;;;6.50;2.72;;;;;;;27.94;35.45;99989.50;2152026;82;31174;-68
2022/06/07 12:49:48;;;;;;;11.33;2.77;;;;;;;27.60;36.82;99996.08;2155300;82;32972;-73
2022/06/07 12:52:53;;;;;;;8.85;3.47;;;;;;;27.21;37.36;100004.16;2197697;81;29341;-72
2022/06/07 12:56:02;;;;;;;7.53;3.52;;;;;;;26.78;38.38;100008.97;2197143;81;28126;-69
2022/06/07 12:59:13;;;;;;;6.62;3.00;;;;;;;26.38;39.11;100016.09;2197370;81;29647;-67
2022/06/07 13:02:23;;;;;;;4.67;3.08;;;;;;;26.03;40.31;100023.93;2197146;81;31198;-70
2022/06/07 13:05:33;;;;;;;6.17;4.47;;;;;;;25.66;41.53;100034.67;2197733;81;33045;-69
2022/06/07 13:08:39;;;;;;;4.25;3.20;;;;;;;25.41;42.47;100041.64;2196604;81;30337;-69
2022/06/07 13:11:41;;;;;;;4.83;3.22;;;;;;;25.08;43.17;100038.22;2221204;79;27997;-69
2022/06/07 13:14:43;;;;;;;6.72;3.08;;;;;;;24.75;44.30;100050.13;2236957;79;29875;-71
2022/06/07 13:18:09;;;;;;;5.95;3.40;;;;;;;24.49;45.16;100055.30;2236670;79;31902;-74
2022/06/07 13:21:22;;;;;;;4.85;3.87;;;;;;;24.34;46.11;100055.66;2225783;79;33051;-69
2022/06/07 13:24:34;;;;;;;4.47;3.30;;;;;;;24.09;46.82;100057.89;2236678;79;29747;-68
2022/06/07 13:27:51;;;;;;;9.43;4.70;;;;;;;23.83;47.96;100069.79;2235196;79;27689;-69
2022/06/07 13:30:54;;;;;;;5.00;4.10;;;;;;;23.64;48.07;100066.02;2237151;79;29312;-65
2022/06/07 13:34:04;;;;;;;4.50;3.67;;;;;;;23.42;49.16;100070.20;2236736;79;31112;-68
2022/06/07 13:37:19;;;;;;;7.12;4.67;;;;;;;23.27;49.65;100068.11;2227193;79;33066;-67
2022/06/07 13:40:26;;;;;;;6.80;4.47;;;;;;;23.13;49.94;100071.44;2227458;79;29413;-64
2022/06/07 13:43:29;;;;;;;9.83;4.67;;;;;;;23.05;50.70;100062.69;2227491;79;27654;-68
2022/06/07 13:46:36;;;;;;;4.58;3.60;;;;;;;22.84;51.07;100057.64;2227392;79;28690;-68
2022/06/07 13:53:31;;;;;;;4.55;3.45;;;;;;;22.53;51.82;100053.52;2226811;80;34255;-69
2022/06/07 13:56:31;;;;;;;6.67;4.62;;;;;;;22.34;52.51;100061.38;2184127;81;31490;-66
2022/06/07 13:59:33;;;;;;;5.67;4.28;;;;;;;22.13;52.88;100059.00;2227120;80;27693;-68
2022/06/07 14:02:41;;;;;;;7.92;4.33;;;;;;;22.00;53.44;100052.09;2185213;81;29976;-66
2022/06/07 14:05:43;;;;;;;7.80;4.62;;;;;;;21.87;53.98;100056.21;2227348;79;30647;-66
2022/06/07 14:08:45;;;;;;;5.78;4.28;;;;;;;21.77;54.32;100055.77;2187930;81;33848;-67
2022/06/07 14:11:54;;;;;;;7.45;4.75;;;;;;;21.70;54.97;100054.17;2187953;81;30729;-68
2022/06/07 14:14:56;;;;;;;4.85;4.30;;;;;;;21.63;55.12;100050.84;2188304;81;27708;-66
2022/06/07 14:17:59;;;;;;;6.28;4.92;;;;;;;21.58;55.51;100039.02;2187907;81;29916;-67
2022/06/07 14:21:01;;;;;;;6.92;4.20;;;;;;;21.57;56.27;100040.55;2188280;81;31078;-68
2022/06/07 14:24:08;;;;;;;7.85;4.53;;;;;;;21.51;56.40;100034.70;2187818;81;33084;-68
2022/06/07 14:27:20;;;;;;;7.58;5.08;;;;;;;21.48;56.88;100025.45;2150013;82;30542;-65
2022/06/07 14:30:23;;;;;;;5.28;4.78;;;;;;;21.44;57.08;100015.87;2187875;81;27592;-65
2022/06/07 14:33:26;;;;;;;5.05;4.30;;;;;;;21.37;57.41;100003.37;2188007;81;29926;-70
2022/06/07 14:36:28;;;;;;;8.88;4.70;;;;;;;21.33;57.64;99998.39;2195262;80;31841;-66
2022/06/07 14:39:31;;;;;;;8.43;4.87;;;;;;;21.27;57.69;99989.45;2197486;80;34186;-70
2022/06/07 14:42:33;;;;;;;5.28;4.70;;;;;;;21.23;58.43;99988.91;2197625;81;30492;-72
2022/06/07 14:45:53;;;;;;;6.25;4.92;;;;;;;21.27;58.49;99998.98;2197391;81;27811;-67
2022/06/07 14:49:09;;;;;;;5.92;4.78;;;;;;;21.22;58.47;99996.73;2176221;81;29928;-67
2022/06/07 14:52:15;;;;;;;6.10;4.60;;;;;;;21.31;59.15;99999.04;2189012;81;30591;-68
2022/06/07 14:55:22;;;;;;;7.75;4.85;;;;;;;21.36;58.81;99986.66;2197249;80;34138;-69